Terminal Aerodrome Forecast
Issued by NWS

Home | Current Version | Previous Version | Text Only | Print | Product List | Glossary On
Versions: 1 2 3 4 5 6 7 8 9 10 11 12 13 14 15 16 17
689
FTUS45 KABQ 042337
TAFLVS
TAF
KLVS 042337Z 0500/0524 19010G16KT P6SM SKC
     FM050100 25007KT P6SM SKC
     FM051630 25010G20KT P6SM SCT200
     FM051900 27020G32KT P6SM FEW150 SCT200=

USA.gov is the U.S. government's official web portal to all federal, state and local government web resources and services.